Havre, MT (59501)

8:49 PM MDT on April 25, 2015 (GMT -0600)
41 NOrth of Havre on HWY 232 | | Change Station
CLOSE
Current Station
Personal Weather Station
Location: Havre, MT
Elevation: 2752 ft
Nearby Weather Stations

Elev 2752 ft 48.60 °N, 109.71 °W | Updated 2 seconds ago

Partly Cloudy
Partly Cloudy
37.9 °F
Feels Like 29 °F
N
14.0
Wind Variable Wind from NNW
Gusts 20.0 mph

Today
High -- | Low -- °F
--% Chance of Precip.
Yesterday
High -- | Low -- °F
Precip. -- in
6:09 AM 8:24 PM
Waxing Crescent, 51% visible
Pressure 29.92 in
Visibility 10.0 miles
Clouds Clear
Windchill 29 °F
Dew Point 29 °F
Humidity 69%
Rainfall 0.00 in
Snow Depth Not available.
UV 0 out of 12
Pollen 9.10 out of 12
Air Quality Not available.
Flu Activity Local Activity
METAR KHVR 260153Z AUTO 34008KT 10SM CLR 06/M01 A2988 RMK AO2 SLP132 T00561006

More Conditions Fewer Conditions

Pressure 29.92 in
Visibility 10.0 miles
Clouds Clear
Windchill 29 °F
Dew Point 29 °F
Humidity 69%
Rainfall 0.00 in
Snow Depth Not available.
UV 0 out of 12
Pollen 9.10 out of 12
Air Quality Not available.
Flu Activity Local Activity
METAR KHVR 260153Z AUTO 34008KT 10SM CLR 06/M01 A2988 RMK AO2 SLP132 T00561006

More Conditions Fewer Conditions

10-Day Weather Forecast

Almanac

Astronomy

Apr. 25, 2015 Rise Set
Actual Time
Civil Twilight
Nautical Twilight
Astronomical Twilight
Moon
Length of Visible Light
Length of Day
Tomorrow will be .
, % of the Moon is Illuminated

Today's Extremes

State Highs State Lows

Community

WunderPhotos

Upload Photos

1,816,909 photos uploaded!

WunderBlogs® & News

Nearby

Air Quality

  Air Quality AQ Index Pollutant
Not available.

Snow Depth

Station Depth Elevation

Earthquake Activity

City Distance Mag. Time & Date
Minimum magnitude displayed is 2.5.

Coastal Water Temperatures

Place Temperature

Stations

Nearby Weather Stations

Station Location Temp. Windchill Dew Point Humidity Wind Precip. Elev Updated Type